createdAt,value
2023-04-21T00:00:10.333Z,94690.00
2023-04-21T00:01:10.266Z,94690.00
2023-04-21T00:02:10.416Z,94694.00
2023-04-21T00:03:10.494Z,94696.00
2023-04-21T00:04:10.427Z,94699.00
2023-04-21T00:05:10.523Z,94698.00
2023-04-21T00:06:10.462Z,94692.00
2023-04-21T00:07:10.368Z,94688.00
2023-04-21T00:08:10.418Z,94684.00
2023-04-21T00:09:10.449Z,94676.00
2023-04-21T00:10:10.394Z,94680.00
2023-04-21T00:11:10.475Z,94686.00
2023-04-21T00:12:10.488Z,94686.00
2023-04-21T00:13:10.491Z,94684.00
2023-04-21T00:14:10.528Z,94682.00
2023-04-21T00:15:10.538Z,94682.00
2023-04-21T00:16:10.741Z,94678.00
2023-04-21T00:17:10.585Z,94678.00
2023-04-21T00:18:10.756Z,94682.00
2023-04-21T00:19:10.620Z,94682.00
2023-04-21T00:20:11.461Z,94672.00
2023-04-21T00:21:10.646Z,94672.00
2023-04-21T00:22:10.656Z,94664.00
2023-04-21T00:23:10.728Z,94674.00
2023-04-21T00:24:10.732Z,94680.00
2023-04-21T00:25:10.734Z,94684.00
2023-04-21T00:26:10.772Z,94682.00
2023-04-21T00:27:10.797Z,94680.00
2023-04-21T00:28:10.880Z,94674.00
2023-04-21T00:29:10.814Z,94676.00
2023-04-21T00:30:10.789Z,94676.00
2023-04-21T00:31:10.835Z,94682.00
2023-04-21T00:32:10.834Z,94682.00
2023-04-21T00:33:10.750Z,94682.00
2023-04-21T00:34:10.759Z,94672.00
2023-04-21T00:35:10.812Z,94670.00
2023-04-21T00:36:10.857Z,94676.00
2023-04-21T00:37:10.823Z,94682.00
2023-04-21T00:38:10.850Z,94686.00
2023-04-21T00:39:10.833Z,94686.00
2023-04-21T00:40:10.832Z,94682.00
2023-04-21T00:41:10.848Z,94678.00
2023-04-21T00:42:12.301Z,94674.00
2023-04-21T00:43:10.826Z,94672.00
2023-04-21T00:44:10.849Z,94674.00
2023-04-21T00:45:10.834Z,94672.00
2023-04-21T00:46:10.856Z,94674.00
2023-04-21T00:47:10.979Z,94672.00
2023-04-21T00:48:10.894Z,94674.00
2023-04-21T00:49:10.870Z,94674.00
2023-04-21T00:50:10.875Z,94670.00
2023-04-21T00:51:10.912Z,94670.00
2023-04-21T00:52:10.847Z,94668.00
2023-04-21T00:53:10.892Z,94672.00
2023-04-21T00:54:10.881Z,94680.00
2023-04-21T00:55:10.840Z,94680.00
2023-04-21T00:56:10.932Z,94682.00
2023-04-21T00:57:10.858Z,94684.00
2023-04-21T00:58:10.868Z,94686.00
2023-04-21T00:59:10.931Z,94686.00
2023-04-21T01:00:10.960Z,94682.00
2023-04-21T01:01:10.903Z,94684.00
2023-04-21T01:02:11.052Z,94686.00
2023-04-21T01:03:11.115Z,94690.00
2023-04-21T01:04:11.089Z,94694.00
2023-04-21T01:05:10.944Z,94690.00
2023-04-21T01:06:10.974Z,94694.00
2023-04-21T01:07:10.948Z,94694.00
2023-04-21T01:08:10.975Z,94692.00
2023-04-21T01:09:10.968Z,94692.00
2023-04-21T01:10:10.975Z,94690.00
2023-04-21T01:11:11.019Z,94692.00
2023-04-21T01:12:11.018Z,94692.00
2023-04-21T01:13:10.966Z,94694.00
2023-04-21T01:14:11.019Z,94692.00
2023-04-21T01:15:11.028Z,94692.00
2023-04-21T01:16:11.020Z,94688.00
2023-04-21T01:17:10.962Z,94686.00
2023-04-21T01:18:11.094Z,94684.00
2023-04-21T01:19:11.035Z,94682.00
2023-04-21T01:20:11.054Z,94684.00
2023-04-21T01:21:11.064Z,94686.00
2023-04-21T01:22:11.168Z,94684.00
2023-04-21T01:23:11.134Z,94684.00
2023-04-21T01:24:11.147Z,94684.00
2023-04-21T01:25:11.145Z,94680.00
2023-04-21T01:26:11.163Z,94682.00
2023-04-21T01:27:11.946Z,94680.00
2023-04-21T01:28:11.164Z,94684.00
2023-04-21T01:29:11.219Z,94682.00
2023-04-21T01:30:11.212Z,94682.00
2023-04-21T01:31:11.262Z,94682.00
2023-04-21T01:32:11.265Z,94682.00
2023-04-21T01:33:11.286Z,94680.00
2023-04-21T01:34:11.323Z,94680.00
2023-04-21T01:35:11.301Z,94684.00
2023-04-21T01:36:11.323Z,94680.00
2023-04-21T01:37:11.373Z,94682.00
2023-04-21T01:38:11.377Z,94682.00
2023-04-21T01:39:11.305Z,94684.00
2023-04-21T01:40:11.328Z,94682.00
2023-04-21T01:41:11.411Z,94686.00
2023-04-21T01:42:11.335Z,94686.00
2023-04-21T01:43:11.339Z,94684.00
2023-04-21T01:44:11.394Z,94682.00
2023-04-21T01:45:11.385Z,94682.00
2023-04-21T01:46:11.423Z,94684.00
2023-04-21T01:47:11.424Z,94684.00
2023-04-21T01:48:11.415Z,94682.00
2023-04-21T01:49:11.579Z,94682.00
2023-04-21T01:50:11.385Z,94684.00
2023-04-21T01:51:11.457Z,94680.00
2023-04-21T01:52:11.455Z,94680.00
2023-04-21T01:53:11.447Z,94682.00
2023-04-21T01:54:11.536Z,94680.00
2023-04-21T01:55:11.479Z,94676.00
2023-04-21T01:56:11.514Z,94674.00
2023-04-21T01:57:11.614Z,94672.00
2023-04-21T01:58:11.493Z,94672.00
2023-04-21T01:59:11.509Z,94674.00
2023-04-21T02:00:11.523Z,94672.00
2023-04-21T02:01:11.575Z,94674.00
2023-04-21T02:02:11.664Z,94674.00
2023-04-21T02:03:11.746Z,94672.00
2023-04-21T02:04:11.664Z,94676.00
2023-04-21T02:05:11.585Z,94680.00
2023-04-21T02:06:11.537Z,94684.00
2023-04-21T02:07:11.543Z,94688.00
2023-04-21T02:08:11.552Z,94688.00
2023-04-21T02:09:11.607Z,94688.00
2023-04-21T02:10:11.665Z,94690.00
2023-04-21T02:11:11.594Z,94686.00
2023-04-21T02:12:11.610Z,94688.00
2023-04-21T02:13:11.646Z,94688.00
2023-04-21T02:14:11.613Z,94690.00
2023-04-21T02:15:11.661Z,94688.00
2023-04-21T02:16:13.998Z,94690.00
2023-04-21T02:17:11.749Z,94694.00
2023-04-21T02:18:11.677Z,94696.00
2023-04-21T02:19:11.614Z,94696.00
2023-04-21T02:20:11.636Z,94699.00
2023-04-21T02:21:11.596Z,94699.00
2023-04-21T02:22:11.601Z,94703.00
2023-04-21T02:23:11.589Z,94701.00
2023-04-21T02:24:11.610Z,94703.00
2023-04-21T02:25:11.609Z,94705.00
2023-04-21T02:26:11.558Z,94707.00
2023-04-21T02:27:11.571Z,94705.00
2023-04-21T02:28:11.574Z,94709.00
2023-04-21T02:29:11.540Z,94705.00
2023-04-21T02:30:11.591Z,94701.00
2023-04-21T02:31:11.624Z,94701.00
2023-04-21T02:32:22.291Z,94701.00
2023-04-21T02:33:12.540Z,94701.00
2023-04-21T02:34:11.516Z,94703.00
2023-04-21T02:35:11.517Z,94705.00
2023-04-21T02:36:11.537Z,94709.00
2023-04-21T02:37:11.497Z,94709.00
2023-04-21T02:38:11.509Z,94707.00
2023-04-21T02:39:11.554Z,94707.00
2023-04-21T02:40:11.530Z,94705.00
2023-04-21T02:41:11.474Z,94703.00
2023-04-21T02:42:11.469Z,94707.00
2023-04-21T02:43:11.490Z,94705.00
2023-04-21T02:44:11.452Z,94709.00
2023-04-21T02:45:11.455Z,94707.00
2023-04-21T02:46:11.442Z,94711.00
2023-04-21T02:47:11.444Z,94713.00
2023-04-21T02:48:11.706Z,94719.00
2023-04-21T02:49:11.426Z,94715.00
2023-04-21T02:50:11.563Z,94715.00
2023-04-21T02:51:11.538Z,94719.00
2023-04-21T02:52:11.526Z,94723.00
2023-04-21T02:53:11.617Z,94719.00
2023-04-21T02:54:11.624Z,94719.00
2023-04-21T02:55:11.649Z,94723.00
2023-04-21T02:56:11.787Z,94721.00
2023-04-21T02:57:11.717Z,94719.00
2023-04-21T02:58:11.710Z,94721.00
2023-04-21T02:59:11.784Z,94719.00
2023-04-21T03:00:11.810Z,94723.00
2023-04-21T03:01:11.884Z,94721.00
2023-04-21T03:02:11.906Z,94719.00
2023-04-21T03:03:12.061Z,94717.00
2023-04-21T03:04:11.949Z,94719.00
2023-04-21T03:05:11.944Z,94719.00
2023-04-21T03:06:12.077Z,94721.00
2023-04-21T03:07:12.006Z,94721.00
2023-04-21T03:08:12.044Z,94725.00
2023-04-21T03:09:12.039Z,94725.00
2023-04-21T03:10:12.071Z,94725.00
2023-04-21T03:11:12.119Z,94723.00
2023-04-21T03:12:12.119Z,94725.00
2023-04-21T03:13:12.182Z,94729.00
2023-04-21T03:14:12.205Z,94727.00
2023-04-21T03:15:12.244Z,94725.00
2023-04-21T03:16:12.393Z,94723.00
2023-04-21T03:17:12.316Z,94727.00
2023-04-21T03:18:12.423Z,94729.00
2023-04-21T03:19:12.397Z,94727.00
2023-04-21T03:20:12.431Z,94725.00
2023-04-21T03:21:12.516Z,94719.00
2023-04-21T03:22:12.621Z,94717.00
2023-04-21T03:23:12.530Z,94715.00
2023-04-21T03:24:12.572Z,94715.00
2023-04-21T03:25:12.581Z,94719.00
2023-04-21T03:26:12.682Z,94717.00
2023-04-21T03:27:12.654Z,94717.00
2023-04-21T03:28:12.730Z,94715.00
2023-04-21T03:29:12.757Z,94717.00
2023-04-21T03:30:12.780Z,94713.00
2023-04-21T03:31:12.845Z,94717.00
2023-04-21T03:32:12.928Z,94715.00
2023-04-21T03:33:12.908Z,94717.00
2023-04-21T03:34:12.952Z,94711.00
2023-04-21T03:35:12.962Z,94713.00
2023-04-21T03:36:13.523Z,94721.00
2023-04-21T03:37:13.065Z,94725.00
2023-04-21T03:38:13.106Z,94727.00
2023-04-21T03:39:20.018Z,94725.00
2023-04-21T03:40:14.122Z,94731.00
2023-04-21T03:41:13.231Z,94731.00
2023-04-21T03:42:13.100Z,94731.00
2023-04-21T03:43:13.072Z,94733.00
2023-04-21T03:44:13.139Z,94733.00
2023-04-21T03:45:13.090Z,94729.00
2023-04-21T03:46:13.081Z,94731.00
2023-04-21T03:47:13.083Z,94731.00
2023-04-21T03:48:13.058Z,94737.00
2023-04-21T03:49:13.069Z,94735.00
2023-04-21T03:50:13.092Z,94733.00
2023-04-21T03:51:13.064Z,94729.00
2023-04-21T03:52:13.038Z,94731.00
2023-04-21T03:53:13.020Z,94733.00
2023-04-21T03:54:13.108Z,94733.00
2023-04-21T03:55:13.093Z,94739.00
2023-04-21T03:56:13.154Z,94737.00
2023-04-21T03:57:13.277Z,94737.00
2023-04-21T03:58:13.160Z,94735.00
2023-04-21T03:59:13.220Z,94731.00
2023-04-21T04:00:13.306Z,94727.00
2023-04-21T04:01:13.328Z,94727.00
2023-04-21T04:02:13.513Z,94727.00
2023-04-21T04:03:13.585Z,94727.00
2023-04-21T04:04:13.689Z,94729.00
2023-04-21T04:05:13.621Z,94731.00
2023-04-21T04:06:13.583Z,94731.00
2023-04-21T04:07:13.625Z,94729.00
2023-04-21T04:08:13.705Z,94725.00
2023-04-21T04:09:13.700Z,94723.00
2023-04-21T04:10:13.799Z,94721.00
2023-04-21T04:11:13.863Z,94721.00
2023-04-21T04:12:13.936Z,94719.00
2023-04-21T04:13:13.922Z,94723.00
2023-04-21T04:14:13.954Z,94723.00
2023-04-21T04:15:14.015Z,94725.00
2023-04-21T04:16:14.163Z,94725.00
2023-04-21T04:17:14.514Z,94721.00
2023-04-21T04:18:14.128Z,94721.00
2023-04-21T04:19:14.190Z,94721.00
2023-04-21T04:20:14.261Z,94723.00
2023-04-21T04:21:14.268Z,94719.00
2023-04-21T04:22:14.346Z,94723.00
2023-04-21T04:23:14.377Z,94717.00
2023-04-21T04:24:14.462Z,94713.00
2023-04-21T04:25:14.463Z,94713.00
2023-04-21T04:26:14.523Z,94713.00
2023-04-21T04:27:14.618Z,94719.00
2023-04-21T04:28:14.655Z,94723.00
2023-04-21T04:29:14.695Z,94723.00
2023-04-21T04:30:14.735Z,94723.00
2023-04-21T04:31:14.805Z,94723.00
2023-04-21T04:32:14.816Z,94719.00
2023-04-21T04:33:14.852Z,94719.00
2023-04-21T04:34:14.936Z,94719.00
2023-04-21T04:35:14.943Z,94719.00
2023-04-21T04:36:14.967Z,94723.00
2023-04-21T04:37:15.043Z,94721.00
2023-04-21T04:38:15.072Z,94719.00
2023-04-21T04:39:15.147Z,94717.00
2023-04-21T04:40:15.185Z,94715.00
2023-04-21T04:41:15.237Z,94713.00
2023-04-21T04:42:15.283Z,94713.00
2023-04-21T04:43:15.323Z,94715.00
2023-04-21T04:44:15.412Z,94715.00
2023-04-21T04:45:15.486Z,94715.00
2023-04-21T04:46:15.535Z,94717.00
2023-04-21T04:47:15.584Z,94719.00
2023-04-21T04:48:15.664Z,94723.00
2023-04-21T04:49:15.647Z,94725.00
2023-04-21T04:50:15.715Z,94725.00
2023-04-21T04:51:15.761Z,94727.00
2023-04-21T04:52:15.802Z,94723.00
2023-04-21T04:53:15.802Z,94721.00
2023-04-21T04:54:15.884Z,94717.00
2023-04-21T04:55:15.927Z,94721.00
2023-04-21T04:56:15.953Z,94723.00
2023-04-21T04:57:16.028Z,94723.00
2023-04-21T04:58:16.082Z,94725.00
2023-04-21T04:59:16.080Z,94725.00
2023-04-21T05:00:16.165Z,94721.00
2023-04-21T05:01:16.200Z,94721.00
2023-04-21T05:02:16.350Z,94725.00
2023-04-21T05:03:16.492Z,94723.00
2023-04-21T05:04:16.578Z,94725.00
2023-04-21T05:05:16.572Z,94725.00
2023-04-21T05:06:16.407Z,94725.00
2023-04-21T05:07:16.462Z,94727.00
2023-04-21T05:08:18.070Z,94733.00
2023-04-21T05:09:16.496Z,94735.00
2023-04-21T05:10:16.594Z,94733.00
2023-04-21T05:11:16.609Z,94735.00
2023-04-21T05:12:16.629Z,94733.00
2023-04-21T05:13:16.686Z,94733.00
2023-04-21T05:14:16.765Z,94737.00
2023-04-21T05:15:16.776Z,94739.00
2023-04-21T05:16:16.852Z,94739.00
2023-04-21T05:17:16.849Z,94743.00
2023-04-21T05:18:16.878Z,94746.00
2023-04-21T05:19:18.646Z,94748.00
2023-04-21T05:20:16.951Z,94750.00
2023-04-21T05:21:16.986Z,94750.00
2023-04-21T05:22:17.051Z,94752.00
2023-04-21T05:23:17.085Z,94750.00
2023-04-21T05:24:17.259Z,94745.00
2023-04-21T05:25:17.173Z,94741.00
2023-04-21T05:26:17.298Z,94745.00
2023-04-21T05:27:17.311Z,94746.00
2023-04-21T05:28:17.408Z,94748.00
2023-04-21T05:29:17.423Z,94748.00
2023-04-21T05:30:17.587Z,94748.00
2023-04-21T05:31:17.612Z,94748.00
2023-04-21T05:32:17.677Z,94748.00
2023-04-21T05:33:18.011Z,94750.00
2023-04-21T05:34:17.855Z,94754.00
2023-04-21T05:35:17.754Z,94754.00
2023-04-21T05:36:17.869Z,94756.00
2023-04-21T05:37:17.846Z,94752.00
2023-04-21T05:38:17.892Z,94754.00
2023-04-21T05:39:17.933Z,94758.00
2023-04-21T05:40:18.007Z,94758.00
2023-04-21T05:41:18.012Z,94760.00
2023-04-21T05:42:18.048Z,94758.00
2023-04-21T05:43:18.135Z,94760.00
2023-04-21T05:44:18.266Z,94760.00
2023-04-21T05:45:18.244Z,94758.00
2023-04-21T05:46:18.239Z,94758.00
2023-04-21T05:47:18.246Z,94762.00
2023-04-21T05:48:18.350Z,94758.00
2023-04-21T05:49:18.303Z,94758.00
2023-04-21T05:50:18.348Z,94752.00
2023-04-21T05:51:18.408Z,94750.00
2023-04-21T05:52:18.427Z,94752.00
2023-04-21T05:53:18.480Z,94760.00
2023-04-21T05:54:18.720Z,94760.00
2023-04-21T05:55:18.544Z,94756.00
2023-04-21T05:56:18.563Z,94748.00
2023-04-21T05:57:18.640Z,94746.00
2023-04-21T05:58:18.810Z,94748.00
2023-04-21T05:59:18.749Z,94748.00
2023-04-21T06:00:18.761Z,94748.00
2023-04-21T06:01:18.792Z,94746.00
2023-04-21T06:02:19.019Z,94746.00
2023-04-21T06:03:18.935Z,94745.00
2023-04-21T06:04:19.307Z,94743.00
2023-04-21T06:05:18.948Z,94746.00
2023-04-21T06:06:18.927Z,94748.00
2023-04-21T06:07:19.014Z,94748.00
2023-04-21T06:08:19.032Z,94752.00
2023-04-21T06:09:19.052Z,94752.00
2023-04-21T06:10:19.073Z,94748.00
2023-04-21T06:11:19.126Z,94758.00
2023-04-21T06:12:19.168Z,94754.00
2023-04-21T06:13:19.194Z,94756.00
2023-04-21T06:14:19.579Z,94756.00
2023-04-21T06:15:19.258Z,94754.00
2023-04-21T06:16:19.336Z,94756.00
2023-04-21T06:17:19.368Z,94756.00
2023-04-21T06:18:19.370Z,94754.00
2023-04-21T06:19:19.409Z,94754.00
2023-04-21T06:20:19.436Z,94758.00
2023-04-21T06:21:19.477Z,94762.00
2023-04-21T06:22:19.546Z,94764.00
2023-04-21T06:23:19.572Z,94764.00
2023-04-21T06:24:19.844Z,94764.00
2023-04-21T06:25:19.643Z,94766.00
2023-04-21T06:26:19.694Z,94768.00
2023-04-21T06:27:19.749Z,94760.00
2023-04-21T06:28:19.784Z,94758.00
2023-04-21T06:29:19.867Z,94756.00
2023-04-21T06:30:19.914Z,94756.00
2023-04-21T06:31:20.084Z,94758.00
2023-04-21T06:32:20.002Z,94760.00
2023-04-21T06:33:20.032Z,94768.00
2023-04-21T06:34:20.323Z,94772.00
2023-04-21T06:35:20.113Z,94766.00
2023-04-21T06:36:20.156Z,94760.00
2023-04-21T06:37:20.193Z,94754.00
2023-04-21T06:38:20.262Z,94754.00
2023-04-21T06:39:20.256Z,94754.00
2023-04-21T06:40:20.251Z,94756.00
2023-04-21T06:41:20.432Z,94762.00
2023-04-21T06:42:20.332Z,94762.00
2023-04-21T06:43:20.336Z,94758.00
2023-04-21T06:44:20.491Z,94756.00
2023-04-21T06:45:20.406Z,94756.00
2023-04-21T06:46:20.415Z,94758.00
2023-04-21T06:47:20.460Z,94752.00
2023-04-21T06:48:20.423Z,94748.00
2023-04-21T06:49:20.565Z,94760.00
2023-04-21T06:50:20.432Z,94764.00
2023-04-21T06:51:20.426Z,94764.00
2023-04-21T06:52:20.416Z,94760.00
2023-04-21T06:53:20.449Z,94754.00
2023-04-21T06:54:20.437Z,94752.00
2023-04-21T06:55:20.416Z,94754.00
2023-04-21T06:56:20.394Z,94758.00
2023-04-21T06:57:20.448Z,94760.00
2023-04-21T06:58:21.405Z,94756.00
2023-04-21T06:59:20.843Z,94754.00
2023-04-21T07:00:20.455Z,94756.00
2023-04-21T07:01:20.519Z,94754.00
2023-04-21T07:02:20.520Z,94758.00
2023-04-21T07:03:20.610Z,94760.00
2023-04-21T07:04:20.496Z,94758.00
2023-04-21T07:05:20.510Z,94758.00
2023-04-21T07:06:20.502Z,94760.00
2023-04-21T07:07:20.476Z,94764.00
2023-04-21T07:08:20.495Z,94758.00
2023-04-21T07:09:20.718Z,94752.00
2023-04-21T07:10:20.590Z,94748.00
2023-04-21T07:11:20.556Z,94748.00
2023-04-21T07:12:20.573Z,94756.00
2023-04-21T07:13:20.631Z,94754.00
2023-04-21T07:14:20.576Z,94754.00
2023-04-21T07:15:20.632Z,94750.00
2023-04-21T07:16:20.699Z,94748.00
2023-04-21T07:17:20.800Z,94750.00
2023-04-21T07:18:20.838Z,94748.00
2023-04-21T07:19:21.126Z,94748.00
2023-04-21T07:20:20.942Z,94745.00
2023-04-21T07:21:21.074Z,94745.00
2023-04-21T07:22:21.068Z,94748.00
2023-04-21T07:23:21.140Z,94748.00
2023-04-21T07:24:21.189Z,94750.00
2023-04-21T07:25:21.220Z,94750.00
2023-04-21T07:26:21.271Z,94754.00
2023-04-21T07:27:21.394Z,94754.00
2023-04-21T07:28:21.424Z,94750.00
2023-04-21T07:29:21.600Z,94756.00
2023-04-21T07:30:21.491Z,94756.00
2023-04-21T07:31:21.631Z,94754.00
2023-04-21T07:32:21.699Z,94748.00
2023-04-21T07:33:21.732Z,94743.00
2023-04-21T07:34:21.751Z,94745.00
2023-04-21T07:35:21.850Z,94745.00
2023-04-21T07:36:21.825Z,94743.00
2023-04-21T07:37:22.285Z,94743.00
2023-04-21T07:38:21.981Z,94741.00
2023-04-21T07:39:22.328Z,94739.00
2023-04-21T07:40:21.918Z,94735.00
2023-04-21T07:41:22.293Z,94741.00
2023-04-21T07:42:22.034Z,94739.00
2023-04-21T07:43:22.009Z,94743.00
2023-04-21T07:44:22.017Z,94743.00
2023-04-21T07:45:22.038Z,94745.00
2023-04-21T07:46:22.085Z,94745.00
2023-04-21T07:47:22.094Z,94741.00
2023-04-21T07:48:22.165Z,94739.00
2023-04-21T07:49:22.210Z,94735.00
2023-04-21T07:50:22.092Z,94731.00
2023-04-21T07:51:22.169Z,94729.00
2023-04-21T07:52:22.087Z,94735.00
2023-04-21T07:53:22.070Z,94735.00
2023-04-21T07:54:22.095Z,94737.00
2023-04-21T07:55:22.249Z,94737.00
2023-04-21T07:56:22.145Z,94739.00
2023-04-21T07:57:22.208Z,94733.00
2023-04-21T07:58:22.256Z,94733.00
2023-04-21T07:59:22.326Z,94731.00
2023-04-21T08:00:22.386Z,94729.00
2023-04-21T08:01:22.439Z,94731.00
2023-04-21T08:02:22.669Z,94731.00
2023-04-21T08:03:24.561Z,94729.00
2023-04-21T08:04:22.794Z,94727.00
2023-04-21T08:05:22.756Z,94729.00
2023-04-21T08:06:22.691Z,94727.00
2023-04-21T08:07:23.072Z,94727.00
2023-04-21T08:08:22.756Z,94725.00
2023-04-21T08:09:23.294Z,94723.00
2023-04-21T08:10:22.852Z,94723.00
2023-04-21T08:11:22.826Z,94723.00
2023-04-21T08:12:22.853Z,94725.00
2023-04-21T08:13:22.871Z,94721.00
2023-04-21T08:14:22.858Z,94721.00
2023-04-21T08:15:22.875Z,94723.00
2023-04-21T08:16:22.906Z,94725.00
2023-04-21T08:17:22.953Z,94723.00
2023-04-21T08:18:23.035Z,94723.00
2023-04-21T08:19:22.929Z,94725.00
2023-04-21T08:20:23.046Z,94721.00
2023-04-21T08:21:22.907Z,94713.00
2023-04-21T08:22:22.916Z,94711.00
2023-04-21T08:23:22.956Z,94711.00
2023-04-21T08:24:23.096Z,94711.00
2023-04-21T08:25:22.887Z,94711.00
2023-04-21T08:26:22.933Z,94713.00
2023-04-21T08:27:22.949Z,94709.00
2023-04-21T08:28:22.932Z,94711.00
2023-04-21T08:29:22.947Z,94707.00
2023-04-21T08:30:23.048Z,94703.00
2023-04-21T08:31:23.038Z,94701.00
2023-04-21T08:32:23.066Z,94698.00
2023-04-21T08:33:23.151Z,94699.00
2023-04-21T08:34:25.744Z,94699.00
2023-04-21T08:35:23.106Z,94698.00
2023-04-21T08:36:29.451Z,94698.00
2023-04-21T08:37:24.158Z,94703.00
2023-04-21T08:38:23.095Z,94705.00
2023-04-21T08:39:23.078Z,94703.00
2023-04-21T08:40:23.170Z,94694.00
2023-04-21T08:41:23.085Z,94684.00
2023-04-21T08:42:23.106Z,94684.00
2023-04-21T08:43:23.091Z,94690.00
2023-04-21T08:44:23.085Z,94690.00
2023-04-21T08:45:23.061Z,94686.00
2023-04-21T08:46:23.360Z,94690.00
2023-04-21T08:47:23.093Z,94692.00
2023-04-21T08:48:23.052Z,94694.00
2023-04-21T08:49:23.063Z,94696.00
2023-04-21T08:50:23.078Z,94698.00
2023-04-21T08:51:23.069Z,94692.00
2023-04-21T08:52:23.073Z,94692.00
2023-04-21T08:53:23.067Z,94690.00
2023-04-21T08:54:23.055Z,94690.00
2023-04-21T08:55:23.101Z,94690.00
2023-04-21T08:56:23.112Z,94688.00
2023-04-21T08:57:23.128Z,94682.00
2023-04-21T08:58:23.151Z,94678.00
2023-04-21T08:59:23.131Z,94670.00
2023-04-21T09:00:23.150Z,94672.00
2023-04-21T09:01:23.258Z,94672.00
2023-04-21T09:02:23.433Z,94678.00
2023-04-21T09:03:26.007Z,94678.00
2023-04-21T09:04:23.575Z,94676.00
2023-04-21T09:05:23.548Z,94674.00
2023-04-21T09:06:23.531Z,94672.00
2023-04-21T09:07:23.186Z,94668.00
2023-04-21T09:08:23.162Z,94662.00
2023-04-21T09:09:23.176Z,94656.00
2023-04-21T09:10:23.167Z,94656.00
2023-04-21T09:11:23.165Z,94660.00
2023-04-21T09:12:23.166Z,94662.00
2023-04-21T09:13:23.177Z,94666.00
2023-04-21T09:14:23.104Z,94660.00
2023-04-21T09:15:23.143Z,94660.00
2023-04-21T09:16:23.175Z,94658.00
2023-04-21T09:17:23.172Z,94660.00
2023-04-21T09:18:23.207Z,94664.00
2023-04-21T09:19:23.093Z,94666.00
2023-04-21T09:20:23.177Z,94664.00
2023-04-21T09:21:23.106Z,94662.00
2023-04-21T09:23:42.647Z,94658.00
2023-04-21T09:26:20.267Z,94650.00
2023-04-21T09:27:20.389Z,94652.00
2023-04-21T09:31:42.625Z,94646.00
2023-04-21T09:34:02.475Z,94646.00
2023-04-21T09:35:02.332Z,94644.00
2023-04-21T09:36:02.319Z,94644.00
2023-04-21T09:37:02.371Z,94644.00
2023-04-21T09:38:02.337Z,94633.00
2023-04-21T09:40:04.714Z,94629.00
2023-04-21T09:41:02.272Z,94625.00
2023-04-21T09:42:02.298Z,94623.00
2023-04-21T09:43:02.273Z,94623.00
2023-04-21T09:44:02.264Z,94621.00
2023-04-21T09:46:02.255Z,94621.00
2023-04-21T09:47:02.268Z,94621.00
2023-04-21T09:48:02.346Z,94619.00
2023-04-21T09:49:02.226Z,94617.00
2023-04-21T09:50:02.753Z,94615.00
2023-04-21T09:51:25.569Z,94617.00
2023-04-21T09:52:16.985Z,94611.00
2023-04-21T09:53:03.231Z,94613.00
2023-04-21T09:54:02.196Z,94609.00
2023-04-21T09:55:02.164Z,94611.00
2023-04-21T09:56:02.209Z,94613.00
2023-04-21T09:57:02.267Z,94613.00
2023-04-21T09:58:02.161Z,94615.00
2023-04-21T09:59:02.143Z,94615.00
2023-04-21T10:00:02.199Z,94611.00
2023-04-21T10:01:02.159Z,94613.00
2023-04-21T10:02:02.435Z,94611.00
2023-04-21T10:03:02.357Z,94605.00
2023-04-21T10:04:02.206Z,94607.00
2023-04-21T10:05:02.337Z,94609.00
2023-04-21T10:06:02.125Z,94613.00
2023-04-21T10:07:02.161Z,94619.00
2023-04-21T10:08:02.135Z,94621.00
2023-04-21T10:09:02.121Z,94617.00
2023-04-21T10:10:02.084Z,94594.00
2023-04-21T10:11:02.088Z,94603.00
2023-04-21T10:12:02.087Z,94613.00
2023-04-21T10:13:02.083Z,94603.00
2023-04-21T10:14:02.077Z,94599.00
2023-04-21T10:15:02.079Z,94607.00
2023-04-21T10:16:02.084Z,94613.00
2023-04-21T10:17:02.048Z,94603.00
2023-04-21T10:18:02.108Z,94596.00
2023-04-21T10:19:02.064Z,94599.00
2023-04-21T10:20:02.036Z,94603.00
2023-04-21T10:21:02.032Z,94599.00
2023-04-21T10:22:02.040Z,94603.00
2023-04-21T10:23:02.042Z,94599.00
2023-04-21T10:24:02.018Z,94598.00
2023-04-21T10:25:02.000Z,94601.00
2023-04-21T10:26:02.017Z,94603.00
2023-04-21T10:27:02.063Z,94594.00
2023-04-21T10:28:02.067Z,94611.00
2023-04-21T10:29:02.112Z,94596.00
2023-04-21T10:30:02.188Z,94601.00
2023-04-21T10:31:02.208Z,94603.00
2023-04-21T10:32:02.316Z,94598.00
2023-04-21T10:33:02.352Z,94598.00
2023-04-21T10:34:02.276Z,94601.00
2023-04-21T10:35:02.253Z,94599.00
2023-04-21T10:36:02.348Z,94596.00
2023-04-21T10:37:02.357Z,94596.00
2023-04-21T10:38:02.450Z,94605.00
2023-04-21T10:39:02.455Z,94596.00
2023-04-21T10:40:02.456Z,94588.00
2023-04-21T10:41:02.520Z,94584.00
2023-04-21T10:42:02.547Z,94590.00
2023-04-21T10:43:02.568Z,94596.00
2023-04-21T10:44:02.610Z,94594.00
2023-04-21T10:45:02.660Z,94594.00
2023-04-21T10:46:02.677Z,94590.00
2023-04-21T10:47:02.769Z,94584.00
2023-04-21T10:48:02.862Z,94590.00
2023-04-21T10:49:02.837Z,94594.00
2023-04-21T10:50:02.869Z,94598.00
2023-04-21T10:51:02.900Z,94594.00
2023-04-21T10:52:02.934Z,94590.00
2023-04-21T10:53:02.918Z,94596.00
2023-04-21T10:54:02.940Z,94594.00
2023-04-21T10:55:02.933Z,94584.00
2023-04-21T10:56:02.966Z,94580.00
2023-04-21T10:57:03.027Z,94588.00
2023-04-21T10:58:03.034Z,94582.00
2023-04-21T10:59:03.070Z,94588.00
2023-04-21T11:00:03.032Z,94588.00
2023-04-21T11:01:03.078Z,94592.00
2023-04-21T11:02:03.240Z,94594.00
2023-04-21T11:03:03.205Z,94590.00
2023-04-21T11:04:03.214Z,94586.00
2023-04-21T11:05:03.194Z,94590.00
2023-04-21T11:06:03.112Z,94594.00
2023-04-21T11:07:03.216Z,94590.00
2023-04-21T11:08:03.225Z,94603.00
2023-04-21T11:09:03.274Z,94578.00
2023-04-21T11:10:03.331Z,94592.00
2023-04-21T11:11:03.402Z,94588.00
2023-04-21T11:12:03.423Z,94594.00
2023-04-21T11:13:03.412Z,94578.00
2023-04-21T11:14:03.468Z,94572.00
2023-04-21T11:15:03.464Z,94586.00
2023-04-21T11:16:03.504Z,94590.00
2023-04-21T11:17:03.545Z,94596.00
2023-04-21T11:18:03.588Z,94598.00
2023-04-21T11:19:03.553Z,94586.00
2023-04-21T11:20:03.610Z,94582.00
2023-04-21T11:21:03.665Z,94592.00
2023-04-21T11:22:03.743Z,94586.00
2023-04-21T11:23:03.713Z,94574.00
2023-04-21T11:24:03.753Z,94574.00
2023-04-21T11:25:03.749Z,94568.00
2023-04-21T11:26:03.752Z,94562.00
2023-04-21T11:27:03.809Z,94570.00
2023-04-21T11:28:03.834Z,94560.00
2023-04-21T11:29:03.924Z,94574.00
2023-04-21T11:30:03.968Z,94586.00
2023-04-21T11:31:04.043Z,94580.00
2023-04-21T11:32:03.995Z,94576.00
2023-04-21T11:33:04.104Z,94578.00
2023-04-21T11:34:04.077Z,94582.00
2023-04-21T11:35:04.050Z,94560.00
2023-04-21T11:36:04.136Z,94570.00
2023-04-21T11:37:04.143Z,94580.00
2023-04-21T11:38:04.210Z,94566.00
2023-04-21T11:39:04.185Z,94572.00
2023-04-21T11:40:04.268Z,94566.00
2023-04-21T11:41:04.228Z,94564.00
2023-04-21T11:42:04.278Z,94568.00
2023-04-21T11:43:04.287Z,94554.00
2023-04-21T11:44:04.297Z,94568.00
2023-04-21T11:45:04.302Z,94574.00
2023-04-21T11:46:04.362Z,94574.00
2023-04-21T11:47:04.369Z,94554.00
2023-04-21T11:48:04.463Z,94566.00
2023-04-21T11:49:04.461Z,94554.00
2023-04-21T11:50:04.508Z,94564.00
2023-04-21T11:51:04.480Z,94562.00
2023-04-21T11:52:04.447Z,94568.00
2023-04-21T11:53:04.515Z,94558.00
2023-04-21T11:54:04.551Z,94560.00